createdAt,value
2023-02-21T00:01:57.659Z,7.79
2023-02-21T00:04:42.668Z,7.83
2023-02-21T00:07:27.697Z,7.82
2023-02-21T00:10:12.985Z,7.84
2023-02-21T00:12:58.235Z,7.81
2023-02-21T00:15:43.350Z,7.86
2023-02-21T00:18:28.519Z,7.89
2023-02-21T00:21:13.765Z,7.86
2023-02-21T00:23:58.683Z,7.82
2023-02-21T00:26:44.002Z,7.83
2023-02-21T00:29:29.150Z,7.82
2023-02-21T00:32:14.458Z,7.83
2023-02-21T00:34:59.754Z,7.82
2023-02-21T00:37:44.828Z,7.79
2023-02-21T00:40:31.721Z,7.80
2023-02-21T00:43:16.960Z,7.79
2023-02-21T00:46:02.108Z,7.79
2023-02-21T00:48:47.789Z,7.78
2023-02-21T00:51:33.093Z,7.76
2023-02-21T00:54:18.429Z,7.74
2023-02-21T00:57:03.997Z,7.75
2023-02-21T00:59:49.105Z,7.75
2023-02-21T01:02:34.480Z,7.70
2023-02-21T01:05:20.001Z,7.69
2023-02-21T01:08:04.902Z,7.69
2023-02-21T01:10:49.894Z,7.71
2023-02-21T01:13:35.130Z,7.73
2023-02-21T01:16:20.595Z,7.71
2023-02-21T01:19:05.743Z,7.70
2023-02-21T01:21:50.707Z,7.67
2023-02-21T01:24:35.984Z,7.70
2023-02-21T01:27:20.848Z,7.67
2023-02-21T01:30:07.260Z,7.70
2023-02-21T01:32:52.306Z,7.68
2023-02-21T01:35:37.799Z,7.68
2023-02-21T01:38:22.850Z,7.72
2023-02-21T01:41:07.977Z,7.70
2023-02-21T01:43:53.333Z,7.70
2023-02-21T01:46:39.419Z,7.72
2023-02-21T01:49:30.425Z,7.72
2023-02-21T01:52:18.711Z,7.73
2023-02-21T01:55:08.734Z,7.75
2023-02-21T01:57:54.862Z,7.74
2023-02-21T02:00:40.111Z,7.76
2023-02-21T02:03:27.898Z,7.77
2023-02-21T02:06:35.473Z,7.75
2023-02-21T02:09:37.286Z,7.78
2023-02-21T02:12:31.084Z,7.77
2023-02-21T02:15:24.912Z,7.75
2023-02-21T02:18:27.321Z,7.73
2023-02-21T02:21:09.024Z,7.74
2023-02-21T02:23:44.700Z,7.77
2023-02-21T02:26:38.913Z,7.76
2023-02-21T02:29:26.580Z,7.77
2023-02-21T02:32:19.575Z,7.79
2023-02-21T02:35:04.652Z,7.78
2023-02-21T02:37:49.610Z,7.80
2023-02-21T02:40:34.895Z,7.77
2023-02-21T02:43:10.782Z,7.75
2023-02-21T02:45:43.868Z,7.76
2023-02-21T02:48:19.516Z,7.76
2023-02-21T02:50:48.682Z,7.79
2023-02-21T02:53:22.634Z,7.75
2023-02-21T02:55:54.971Z,7.81
2023-02-21T02:58:23.792Z,7.73
2023-02-21T03:01:26.102Z,7.76
2023-02-21T03:04:17.571Z,7.74
2023-02-21T03:07:05.944Z,7.73
2023-02-21T03:09:44.369Z,7.74
2023-02-21T03:12:35.012Z,7.73
2023-02-21T03:15:17.803Z,7.75
2023-02-21T03:17:53.241Z,7.69
2023-02-21T03:20:21.327Z,7.73
2023-02-21T03:22:50.086Z,7.71
2023-02-21T03:25:18.638Z,7.72
2023-02-21T03:27:45.821Z,7.72
2023-02-21T03:30:13.942Z,7.73
2023-02-21T03:32:46.851Z,7.69
2023-02-21T03:35:14.182Z,7.67
2023-02-21T03:37:46.714Z,7.66
2023-02-21T03:40:18.130Z,7.64
2023-02-21T03:42:44.788Z,7.61
2023-02-21T03:45:11.478Z,7.59
2023-02-21T03:47:38.087Z,7.59
2023-02-21T03:50:05.132Z,7.60
2023-02-21T03:52:31.770Z,7.58
2023-02-21T03:54:58.559Z,7.60
2023-02-21T03:57:25.334Z,7.59
2023-02-21T03:59:51.993Z,7.56
2023-02-21T04:02:19.265Z,7.54
2023-02-21T04:04:48.582Z,7.50
2023-02-21T04:07:17.271Z,7.49
2023-02-21T04:09:44.074Z,7.47
2023-02-21T04:12:11.094Z,7.44
2023-02-21T04:14:37.688Z,7.45
2023-02-21T04:17:04.768Z,7.43
2023-02-21T04:19:31.757Z,7.43
2023-02-21T04:21:58.570Z,7.42
2023-02-21T04:24:25.251Z,7.42
2023-02-21T04:26:52.211Z,7.40
2023-02-21T04:29:19.146Z,7.41
2023-02-21T04:31:46.066Z,7.37
2023-02-21T04:34:13.055Z,7.40
2023-02-21T04:36:40.452Z,7.36
2023-02-21T04:39:07.678Z,7.35
2023-02-21T04:41:34.591Z,7.33
2023-02-21T04:44:01.216Z,7.31
2023-02-21T04:46:27.889Z,7.35
2023-02-21T04:48:54.615Z,7.30
2023-02-21T04:51:23.897Z,7.29
2023-02-21T04:53:51.712Z,7.30
2023-02-21T04:56:21.066Z,7.30
2023-02-21T04:58:47.618Z,7.22
2023-02-21T05:01:16.147Z,7.24
2023-02-21T05:03:43.280Z,7.24
2023-02-21T05:06:10.025Z,7.27
2023-02-21T05:08:36.827Z,7.28
2023-02-21T05:11:03.867Z,7.18
2023-02-21T05:13:30.579Z,7.17
2023-02-21T05:15:57.194Z,7.21
2023-02-21T05:18:28.755Z,7.17
2023-02-21T05:20:55.937Z,7.16
2023-02-21T05:23:35.053Z,7.11
2023-02-21T05:26:09.912Z,7.16
2023-02-21T05:28:37.640Z,7.10
2023-02-21T05:31:05.095Z,7.09
2023-02-21T05:33:32.887Z,7.05
2023-02-21T05:36:00.053Z,7.07
2023-02-21T05:38:47.335Z,7.04
2023-02-21T05:41:15.884Z,7.08
2023-02-21T05:43:47.275Z,7.09
2023-02-21T05:46:29.509Z,7.09
2023-02-21T05:48:57.724Z,7.10
2023-02-21T05:51:25.794Z,7.08
2023-02-21T05:53:52.557Z,7.11
2023-02-21T05:56:21.395Z,7.09
2023-02-21T05:58:48.237Z,7.09
2023-02-21T06:01:15.329Z,7.12
2023-02-21T06:03:42.233Z,7.10
2023-02-21T06:06:08.931Z,7.10
2023-02-21T06:08:49.319Z,7.11
2023-02-21T06:11:22.852Z,7.09
2023-02-21T06:13:53.647Z,7.11
2023-02-21T06:16:20.807Z,7.12
2023-02-21T06:18:56.936Z,7.15
2023-02-21T06:21:23.814Z,7.16
2023-02-21T06:23:50.492Z,7.15
2023-02-21T06:26:20.829Z,7.15
2023-02-21T06:28:48.065Z,7.17
2023-02-21T06:31:16.675Z,7.17
2023-02-21T06:33:43.458Z,7.13
2023-02-21T06:36:16.337Z,7.12
2023-02-21T06:38:48.709Z,7.10
2023-02-21T06:41:18.054Z,7.14
2023-02-21T06:43:45.095Z,7.12
2023-02-21T06:46:17.354Z,7.15
2023-02-21T06:48:44.165Z,7.14
2023-02-21T06:51:11.430Z,7.09
2023-02-21T06:53:38.475Z,7.05
2023-02-21T06:56:05.798Z,7.13
2023-02-21T06:58:32.379Z,7.10
2023-02-21T07:00:59.070Z,7.09
2023-02-21T07:03:28.683Z,7.10
2023-02-21T07:05:55.462Z,7.12
2023-02-21T07:08:22.150Z,7.11
2023-02-21T07:10:48.935Z,7.10
2023-02-21T07:13:15.530Z,7.13
2023-02-21T07:15:42.190Z,7.16
2023-02-21T07:18:08.798Z,7.16
2023-02-21T07:20:35.444Z,7.17
2023-02-21T07:23:02.160Z,7.16
2023-02-21T07:25:30.427Z,7.22
2023-02-21T07:27:57.138Z,7.26
2023-02-21T07:30:23.951Z,7.34
2023-02-21T07:32:50.720Z,7.37
2023-02-21T07:35:17.376Z,7.34
2023-02-21T07:37:44.033Z,7.41
2023-02-21T07:40:10.907Z,7.48
2023-02-21T07:42:37.647Z,7.45
2023-02-21T07:45:04.457Z,7.52
2023-02-21T07:47:31.154Z,7.56
2023-02-21T07:49:58.135Z,7.61
2023-02-21T07:52:27.739Z,7.61
2023-02-21T07:54:54.481Z,7.61
2023-02-21T07:57:21.126Z,7.65
2023-02-21T07:59:48.306Z,7.62
2023-02-21T08:02:15.628Z,7.65
2023-02-21T08:04:42.422Z,7.75
2023-02-21T08:07:09.628Z,7.65
2023-02-21T08:09:37.729Z,7.70
2023-02-21T08:12:05.021Z,7.68
2023-02-21T08:14:34.559Z,7.79
2023-02-21T08:17:01.300Z,7.86
2023-02-21T08:19:27.931Z,7.84
2023-02-21T08:21:54.570Z,7.88
2023-02-21T08:24:21.526Z,7.88
2023-02-21T08:26:48.267Z,7.96
2023-02-21T08:29:18.038Z,8.03
2023-02-21T08:31:44.899Z,8.12
2023-02-21T08:34:12.393Z,8.15
2023-02-21T08:36:42.090Z,8.18
2023-02-21T08:39:09.733Z,8.18
2023-02-21T08:41:42.328Z,8.18
2023-02-21T08:44:12.494Z,8.21
2023-02-21T08:46:40.854Z,8.35
2023-02-21T08:49:08.351Z,8.35
2023-02-21T08:51:35.851Z,8.36
2023-02-21T08:54:03.505Z,8.40
2023-02-21T08:56:33.423Z,8.41
2023-02-21T08:59:00.672Z,8.36
2023-02-21T09:01:35.179Z,8.27
2023-02-21T09:04:03.860Z,8.42
2023-02-21T09:06:30.755Z,8.53
2023-02-21T09:08:57.677Z,8.60
2023-02-21T09:11:24.371Z,8.53
2023-02-21T09:13:52.964Z,8.57
2023-02-21T09:16:19.792Z,8.55
2023-02-21T09:18:59.051Z,8.45
2023-02-21T09:21:26.005Z,8.60
2023-02-21T09:23:55.038Z,8.72
2023-02-21T09:26:24.081Z,8.74
2023-02-21T09:28:54.166Z,8.83
2023-02-21T09:31:21.038Z,8.82
2023-02-21T09:33:47.690Z,8.86
2023-02-21T09:36:14.381Z,8.87
2023-02-21T09:38:43.766Z,8.96
2023-02-21T09:41:14.498Z,8.87
2023-02-21T09:43:45.968Z,8.88
2023-02-21T09:46:18.094Z,8.97
2023-02-21T09:48:45.530Z,9.03
2023-02-21T09:51:14.452Z,9.06
2023-02-21T09:53:44.571Z,9.03
2023-02-21T09:56:21.661Z,8.86
2023-02-21T09:58:50.039Z,8.98
2023-02-21T10:01:25.593Z,9.10
2023-02-21T10:04:15.363Z,9.11
2023-02-21T10:06:48.164Z,9.14
2023-02-21T10:09:37.185Z,9.08
2023-02-21T10:14:43.454Z,9.27
2023-02-21T10:17:21.559Z,9.14
2023-02-21T10:19:53.233Z,9.22
2023-02-21T10:22:27.011Z,9.34
2023-02-21T10:24:54.292Z,9.24
2023-02-21T10:27:27.460Z,9.35
2023-02-21T10:30:10.329Z,9.44
2023-02-21T10:32:38.189Z,9.43
2023-02-21T10:35:05.272Z,9.38
2023-02-21T10:37:39.246Z,9.49
2023-02-21T10:40:36.785Z,9.46
2023-02-21T10:43:07.232Z,9.42
2023-02-21T10:45:45.486Z,9.39
2023-02-21T10:48:13.851Z,9.54
2023-02-21T10:50:51.562Z,9.59
2023-02-21T10:53:31.364Z,9.62
2023-02-21T10:56:16.867Z,9.73
2023-02-21T10:58:49.978Z,9.87
2023-02-21T11:01:27.226Z,9.84
2023-02-21T11:04:05.694Z,9.81
2023-02-21T11:06:40.608Z,9.77
2023-02-21T11:09:35.299Z,9.87
2023-02-21T11:12:02.787Z,9.81
2023-02-21T11:14:30.632Z,9.87
2023-02-21T11:17:14.518Z,9.91
2023-02-21T11:20:18.399Z,9.76
2023-02-21T11:22:48.332Z,9.96
2023-02-21T11:25:33.085Z,10.07
2023-02-21T11:28:18.413Z,9.93
2023-02-21T11:30:51.356Z,10.16
2023-02-21T11:33:23.946Z,10.16
2023-02-21T11:35:52.381Z,10.30
2023-02-21T11:38:31.193Z,10.37
2023-02-21T11:40:58.051Z,10.44
2023-02-21T11:43:34.591Z,10.54
2023-02-21T11:46:13.412Z,10.80
2023-02-21T11:49:14.201Z,10.86
2023-02-21T11:51:49.340Z,10.93
2023-02-21T11:54:16.081Z,10.98
2023-02-21T11:56:50.874Z,11.12
2023-02-21T11:59:25.489Z,11.26
2023-02-21T12:02:32.609Z,10.86
2023-02-21T12:05:25.993Z,11.20
2023-02-21T12:08:31.329Z,11.13
2023-02-21T12:11:06.937Z,10.89
2023-02-21T12:13:49.916Z,11.18
2023-02-21T12:16:32.979Z,11.39
2023-02-21T12:19:24.385Z,11.32
2023-02-21T12:22:01.502Z,11.55
2023-02-21T12:24:46.256Z,11.38
2023-02-21T12:27:36.644Z,11.21
2023-02-21T12:30:37.603Z,11.22
2023-02-21T12:33:16.178Z,11.41
2023-02-21T12:36:02.414Z,11.72
2023-02-21T12:38:39.725Z,11.54
2023-02-21T12:41:12.353Z,11.49
2023-02-21T12:43:45.238Z,11.51
2023-02-21T12:46:12.761Z,11.51
2023-02-21T12:48:58.172Z,11.51
2023-02-21T12:51:35.400Z,11.43
2023-02-21T12:54:07.698Z,11.51
2023-02-21T12:56:47.127Z,11.72
2023-02-21T12:59:19.661Z,11.59
2023-02-21T13:01:55.560Z,11.59
2023-02-21T13:04:34.869Z,11.44
2023-02-21T13:07:25.273Z,11.64
2023-02-21T13:10:07.559Z,11.51
2023-02-21T13:12:46.167Z,11.45
2023-02-21T13:15:12.766Z,11.43
2023-02-21T13:17:40.876Z,11.65
2023-02-21T13:20:18.002Z,11.66
2023-02-21T13:23:40.745Z,11.63
2023-02-21T13:26:10.197Z,11.71
2023-02-21T13:28:38.806Z,11.74
2023-02-21T13:31:11.270Z,11.84
2023-02-21T13:33:46.185Z,11.86
2023-02-21T13:36:24.072Z,11.73
2023-02-21T13:39:01.961Z,11.74
2023-02-21T13:41:33.926Z,11.90
2023-02-21T13:44:07.969Z,11.96
2023-02-21T13:46:34.666Z,11.81
2023-02-21T13:49:38.210Z,11.80
2023-02-21T13:52:51.103Z,11.71
2023-02-21T13:55:21.238Z,11.78
2023-02-21T13:57:57.601Z,11.94
2023-02-21T14:00:24.276Z,11.99
2023-02-21T14:03:03.183Z,12.03
2023-02-21T14:05:45.303Z,12.01
2023-02-21T14:08:30.806Z,12.00
2023-02-21T14:11:06.704Z,11.95
2023-02-21T14:13:52.621Z,11.89
2023-02-21T14:16:33.645Z,11.85
2023-02-21T14:19:09.145Z,11.76
2023-02-21T14:21:45.731Z,11.78
2023-02-21T14:24:17.326Z,11.83
2023-02-21T14:26:53.097Z,11.80
2023-02-21T14:29:45.654Z,11.73
2023-02-21T14:32:12.415Z,11.71
2023-02-21T14:34:48.457Z,11.75
2023-02-21T14:37:19.684Z,11.73
2023-02-21T14:39:53.645Z,11.70
2023-02-21T14:42:31.700Z,11.68
2023-02-21T14:45:10.589Z,11.68
2023-02-21T14:48:14.418Z,11.73
2023-02-21T14:50:46.669Z,11.73
2023-02-21T14:53:40.652Z,11.65
2023-02-21T14:56:25.323Z,11.59
2023-02-21T14:59:10.666Z,11.65
2023-02-21T15:01:56.408Z,11.66
2023-02-21T15:04:54.669Z,11.62
2023-02-21T15:07:48.869Z,11.61
2023-02-21T15:10:22.029Z,11.48
2023-02-21T15:13:01.117Z,11.43
2023-02-21T15:15:42.069Z,11.38
2023-02-21T15:18:25.374Z,11.48
2023-02-21T15:21:10.477Z,11.47
2023-02-21T15:23:38.920Z,11.48
2023-02-21T15:26:22.002Z,11.46
2023-02-21T15:29:27.269Z,11.46
2023-02-21T15:31:57.149Z,11.43
2023-02-21T15:34:33.333Z,11.40
2023-02-21T15:37:17.859Z,11.36
2023-02-21T15:39:54.493Z,11.37
2023-02-21T15:42:24.380Z,11.31
2023-02-21T15:45:01.966Z,11.27
2023-02-21T15:47:33.210Z,11.30
2023-02-21T15:50:08.469Z,11.29
2023-02-21T15:52:37.506Z,11.22
2023-02-21T15:55:28.765Z,11.16
2023-02-21T15:58:04.112Z,11.15
2023-02-21T16:00:33.641Z,11.16
2023-02-21T16:03:34.569Z,11.10
2023-02-21T16:06:32.060Z,11.01
2023-02-21T16:09:02.112Z,11.01
2023-02-21T16:11:42.253Z,10.87
2023-02-21T16:14:20.967Z,10.89
2023-02-21T16:16:53.900Z,10.87
2023-02-21T16:19:23.385Z,10.85
2023-02-21T16:21:51.162Z,10.73
2023-02-21T16:24:32.649Z,10.70
2023-02-21T16:27:09.270Z,10.67
2023-02-21T16:29:35.910Z,10.64
2023-02-21T16:32:02.777Z,10.62
2023-02-21T16:34:32.720Z,10.61
2023-02-21T16:37:05.376Z,10.57
2023-02-21T16:39:32.207Z,10.54
2023-02-21T16:41:59.250Z,10.52
2023-02-21T16:44:27.229Z,10.46
2023-02-21T16:46:54.009Z,10.42
2023-02-21T16:49:20.631Z,10.42
2023-02-21T16:51:48.276Z,10.38
2023-02-21T16:54:15.198Z,10.34
2023-02-21T16:56:45.350Z,10.28
2023-02-21T16:59:15.656Z,10.32
2023-02-21T17:01:43.419Z,10.33
2023-02-21T17:04:36.628Z,10.27
2023-02-21T17:07:06.301Z,10.39
2023-02-21T17:09:39.363Z,10.39
2023-02-21T17:12:07.282Z,10.37
2023-02-21T17:14:34.545Z,10.26
2023-02-21T17:17:01.307Z,10.21
2023-02-21T17:19:31.572Z,10.24
2023-02-21T17:22:00.334Z,10.22
2023-02-21T17:24:27.082Z,10.23
2023-02-21T17:26:54.065Z,10.19
2023-02-21T17:29:21.412Z,10.17
2023-02-21T17:31:53.796Z,10.19
2023-02-21T17:34:20.823Z,10.14
2023-02-21T17:36:51.924Z,10.13
2023-02-21T17:39:20.267Z,10.13
2023-02-21T17:41:51.478Z,10.14
2023-02-21T17:44:18.837Z,10.11
2023-02-21T17:46:54.570Z,10.10
2023-02-21T17:49:26.716Z,10.08
2023-02-21T17:51:54.408Z,10.12
2023-02-21T17:54:23.879Z,10.11
2023-02-21T17:56:50.753Z,10.03
2023-02-21T17:59:18.735Z,9.98
2023-02-21T18:01:45.951Z,10.00
2023-02-21T18:04:13.821Z,10.04
2023-02-21T18:06:42.209Z,10.02
2023-02-21T18:09:09.826Z,9.96
2023-02-21T18:11:36.734Z,9.95
2023-02-21T18:14:06.919Z,9.95
2023-02-21T18:16:33.716Z,9.94
2023-02-21T18:19:00.479Z,9.93
2023-02-21T18:21:27.535Z,9.96
2023-02-21T18:23:54.522Z,9.92
2023-02-21T18:26:21.442Z,9.91
2023-02-21T18:28:48.914Z,9.96
2023-02-21T18:31:18.053Z,9.95
2023-02-21T18:33:46.049Z,9.87
2023-02-21T18:36:12.697Z,9.83
2023-02-21T18:38:40.924Z,9.83
2023-02-21T18:41:12.618Z,9.85
2023-02-21T18:43:40.786Z,9.85
2023-02-21T18:46:12.051Z,9.83
2023-02-21T18:48:42.466Z,9.81
2023-02-21T18:51:11.057Z,9.84
2023-02-21T18:53:37.835Z,9.83
2023-02-21T18:56:10.447Z,9.81
2023-02-21T18:58:37.975Z,9.78
2023-02-21T19:01:06.746Z,9.80
2023-02-21T19:03:33.609Z,9.75
2023-02-21T19:06:00.637Z,9.70
2023-02-21T19:08:27.755Z,9.65
2023-02-21T19:10:54.527Z,9.60
2023-02-21T19:13:21.162Z,9.57
2023-02-21T19:15:47.890Z,9.55
2023-02-21T19:18:14.611Z,9.53
2023-02-21T19:20:43.664Z,9.47
2023-02-21T19:23:10.407Z,9.43
2023-02-21T19:25:37.346Z,9.44
2023-02-21T19:28:06.802Z,9.45
2023-02-21T19:30:34.829Z,9.37
2023-02-21T19:33:02.684Z,9.38
2023-02-21T19:35:31.909Z,9.35
2023-02-21T19:38:01.718Z,9.31
2023-02-21T19:40:28.715Z,9.32
2023-02-21T19:42:55.391Z,9.30
2023-02-21T19:45:25.766Z,9.31
2023-02-21T19:47:52.657Z,9.34
2023-02-21T19:50:19.651Z,9.35
2023-02-21T19:52:53.024Z,9.36
2023-02-21T19:55:19.690Z,9.39
2023-02-21T19:57:46.328Z,9.44
2023-02-21T20:00:13.478Z,9.43
2023-02-21T20:02:40.059Z,9.40
2023-02-21T20:05:07.031Z,9.39
2023-02-21T20:07:33.667Z,9.39
2023-02-21T20:10:00.285Z,9.33
2023-02-21T20:12:27.166Z,9.34
2023-02-21T20:14:56.076Z,9.33
2023-02-21T20:17:22.683Z,9.30
2023-02-21T20:19:49.808Z,9.31
2023-02-21T20:22:16.551Z,9.31
2023-02-21T20:24:47.025Z,9.25
2023-02-21T20:27:15.290Z,9.27
2023-02-21T20:29:42.165Z,9.27
2023-02-21T20:32:08.975Z,9.27
2023-02-21T20:34:39.231Z,9.29
2023-02-21T20:37:06.002Z,9.31
2023-02-21T20:39:32.811Z,9.31
2023-02-21T20:42:01.588Z,9.29
2023-02-21T20:44:34.134Z,9.28
2023-02-21T20:47:01.392Z,9.28
2023-02-21T20:49:28.851Z,9.29
2023-02-21T20:51:55.818Z,9.27
2023-02-21T20:54:25.110Z,9.25
2023-02-21T20:56:54.848Z,9.25
2023-02-21T20:59:30.261Z,9.25
2023-02-21T21:01:58.092Z,9.26
2023-02-21T21:04:28.235Z,9.20
2023-02-21T21:07:00.550Z,9.19
2023-02-21T21:09:36.949Z,9.23
2023-02-21T21:12:07.431Z,9.22
2023-02-21T21:14:42.515Z,9.23
2023-02-21T21:17:12.973Z,9.23
2023-02-21T21:19:42.088Z,9.23
2023-02-21T21:22:11.859Z,9.24
2023-02-21T21:24:39.508Z,9.23
2023-02-21T21:27:12.708Z,9.16
2023-02-21T21:29:43.561Z,9.16
2023-02-21T21:32:15.923Z,9.15
2023-02-21T21:34:48.027Z,9.12
2023-02-21T21:37:16.320Z,9.15
2023-02-21T21:39:49.372Z,9.14
2023-02-21T21:42:20.022Z,9.13
2023-02-21T21:44:53.665Z,9.18
2023-02-21T21:47:29.069Z,9.10
2023-02-21T21:49:55.723Z,9.11
2023-02-21T21:52:23.859Z,9.04
2023-02-21T21:54:51.013Z,9.08
2023-02-21T21:57:19.134Z,9.04
2023-02-21T21:59:49.858Z,9.01
2023-02-21T22:02:17.130Z,9.01
2023-02-21T22:04:44.835Z,9.00
2023-02-21T22:07:12.879Z,8.92
2023-02-21T22:09:39.959Z,8.94
2023-02-21T22:12:07.872Z,8.89
2023-02-21T22:14:35.279Z,8.84
2023-02-21T22:17:02.020Z,8.74
2023-02-21T22:19:29.007Z,8.70
2023-02-21T22:21:56.939Z,8.67
2023-02-21T22:24:24.471Z,8.71
2023-02-21T22:26:55.512Z,8.70
2023-02-21T22:29:23.216Z,8.70
2023-02-21T22:31:52.053Z,8.63
2023-02-21T22:34:25.577Z,8.59
2023-02-21T22:36:57.499Z,8.57
2023-02-21T22:39:25.644Z,8.54
2023-02-21T22:41:52.819Z,8.56
2023-02-21T22:44:20.128Z,8.55
2023-02-21T22:46:58.249Z,8.40
2023-02-21T22:49:26.760Z,8.38
2023-02-21T22:51:53.627Z,8.38
2023-02-21T22:54:21.201Z,8.39
2023-02-21T22:56:51.293Z,8.38
2023-02-21T22:59:19.982Z,8.26
2023-02-21T23:01:46.907Z,8.31
2023-02-21T23:04:22.725Z,8.26
2023-02-21T23:06:49.345Z,8.30
2023-02-21T23:09:15.988Z,8.30
2023-02-21T23:11:47.345Z,8.29
2023-02-21T23:14:14.326Z,8.28
2023-02-21T23:16:42.305Z,8.28
2023-02-21T23:19:09.225Z,8.28
2023-02-21T23:21:43.866Z,8.23
2023-02-21T23:24:12.684Z,8.22
2023-02-21T23:26:46.599Z,8.19
2023-02-21T23:29:15.977Z,8.21
2023-02-21T23:31:42.639Z,8.21
2023-02-21T23:34:11.634Z,8.31
2023-02-21T23:36:44.384Z,8.28
2023-02-21T23:39:15.237Z,8.27
2023-02-21T23:41:44.302Z,8.28
2023-02-21T23:44:13.424Z,8.27
2023-02-21T23:46:45.243Z,8.31
2023-02-21T23:49:15.785Z,8.25
2023-02-21T23:51:43.982Z,8.27
2023-02-21T23:54:11.518Z,8.28
2023-02-21T23:56:40.188Z,8.28
2023-02-21T23:59:07.107Z,8.23
